createdAt,value
2018-12-08T00:00:17.626Z,6.40
2018-12-08T00:05:21.379Z,6.60
2018-12-08T00:10:24.718Z,6.40
2018-12-08T00:15:29.500Z,6.30
2018-12-08T00:20:34.221Z,6.30
2018-12-08T00:25:39.372Z,6.20
2018-12-08T00:30:56.006Z,6.20
2018-12-08T00:36:00.565Z,5.20
2018-12-08T00:41:05.607Z,4.80
2018-12-08T00:46:10.228Z,4.80
2018-12-08T00:51:14.414Z,4.90
2018-12-08T00:56:19.231Z,5.00
2018-12-08T01:01:24.038Z,4.90
2018-12-08T01:06:29.090Z,5.10
2018-12-08T01:11:33.976Z,5.30
2018-12-08T01:16:38.634Z,5.50
2018-12-08T01:21:43.550Z,5.50
2018-12-08T01:26:48.353Z,5.20
2018-12-08T01:31:52.876Z,5.10
2018-12-08T01:36:57.248Z,5.10
2018-12-08T01:42:01.791Z,5.10
2018-12-08T01:47:07.362Z,5.10
2018-12-08T01:52:12.349Z,5.10
2018-12-08T01:57:18.575Z,5.10
2018-12-08T02:02:23.650Z,5.30
2018-12-08T02:07:28.670Z,5.40
2018-12-08T02:12:33.802Z,5.50
2018-12-08T02:17:38.101Z,5.60
2018-12-08T02:22:42.866Z,5.50
2018-12-08T02:27:48.107Z,5.60
2018-12-08T02:32:52.700Z,5.70
2018-12-08T02:37:57.226Z,5.70
2018-12-08T02:43:01.962Z,5.80
2018-12-08T02:48:06.514Z,5.70
2018-12-08T02:53:11.424Z,5.60
2018-12-08T02:58:16.650Z,5.60
2018-12-08T03:03:20.155Z,5.60
2018-12-08T03:08:25.308Z,5.60
2018-12-08T03:13:30.319Z,5.70
2018-12-08T03:18:35.044Z,5.70
2018-12-08T03:23:39.957Z,5.80
2018-12-08T03:28:43.946Z,5.80
2018-12-08T03:33:47.795Z,5.80
2018-12-08T03:38:52.502Z,5.70
2018-12-08T03:43:55.904Z,5.90
2018-12-08T03:49:01.110Z,5.90
2018-12-08T03:54:05.700Z,5.80
2018-12-08T03:59:09.350Z,5.90
2018-12-08T04:04:14.085Z,6.00
2018-12-08T04:09:18.675Z,6.00
2018-12-08T04:14:22.239Z,6.10
2018-12-08T04:19:26.942Z,6.00
2018-12-08T04:24:31.537Z,5.70
2018-12-08T04:29:35.646Z,5.50
2018-12-08T04:34:40.611Z,5.50
2018-12-08T04:39:45.257Z,5.70
2018-12-08T04:44:50.289Z,5.80
2018-12-08T04:49:53.796Z,5.80
2018-12-08T04:54:58.584Z,5.80
2018-12-08T05:00:04.723Z,5.80
2018-12-08T05:05:08.133Z,5.90
2018-12-08T05:10:12.862Z,6.00
2018-12-08T05:15:16.505Z,6.10
2018-12-08T05:20:20.348Z,6.00
2018-12-08T05:25:24.234Z,6.10
2018-12-08T05:30:29.378Z,6.10
2018-12-08T05:35:33.954Z,6.10
2018-12-08T05:40:39.011Z,6.10
2018-12-08T05:45:43.136Z,6.20
2018-12-08T05:50:48.122Z,6.20
2018-12-08T05:55:51.632Z,6.30
2018-12-08T06:00:55.131Z,6.20
2018-12-08T06:05:58.650Z,6.20
2018-12-08T06:11:02.165Z,6.20
2018-12-08T06:16:05.656Z,6.20
2018-12-08T06:21:09.234Z,6.30
2018-12-08T06:26:12.640Z,6.30
2018-12-08T06:31:16.558Z,6.30
2018-12-08T06:36:20.076Z,6.40
2018-12-08T06:41:23.676Z,6.30
2018-12-08T06:46:27.449Z,6.30
2018-12-08T06:51:30.977Z,6.30
2018-12-08T06:56:35.158Z,6.30
2018-12-08T07:01:39.484Z,6.30
2018-12-08T07:06:43.264Z,6.20
2018-12-08T07:11:47.597Z,6.20
2018-12-08T07:16:52.057Z,6.30
2018-12-08T07:21:58.772Z,6.30
2018-12-08T07:27:03.371Z,6.30
2018-12-08T07:32:07.066Z,6.30
2018-12-08T07:37:11.356Z,6.30
2018-12-08T07:42:16.189Z,6.40
2018-12-08T07:47:21.056Z,6.40
2018-12-08T07:52:26.626Z,6.40
2018-12-08T07:57:31.316Z,6.50
2018-12-08T08:02:34.880Z,6.50
2018-12-08T08:07:39.635Z,6.60
2018-12-08T08:12:45.305Z,6.60
2018-12-08T08:17:49.927Z,6.60
2018-12-08T08:22:53.528Z,6.60
2018-12-08T08:27:57.953Z,6.50
2018-12-08T08:33:01.684Z,6.40
2018-12-08T08:38:06.128Z,6.30
2018-12-08T08:43:11.028Z,6.30
2018-12-08T08:48:16.844Z,6.30
2018-12-08T08:53:21.595Z,6.30
2018-12-08T08:58:26.526Z,6.40
2018-12-08T09:03:31.072Z,6.40
2018-12-08T09:08:35.690Z,6.50
2018-12-08T09:13:40.213Z,6.60
2018-12-08T09:18:45.138Z,6.60
2018-12-08T09:23:49.627Z,6.60
2018-12-08T09:28:54.004Z,6.70
2018-12-08T09:34:00.399Z,6.80
2018-12-08T09:39:05.929Z,6.80
2018-12-08T09:44:09.517Z,6.90
2018-12-08T09:49:13.648Z,6.90
2018-12-08T09:54:18.417Z,7.00
2018-12-08T09:59:23.208Z,7.00
2018-12-08T10:04:27.548Z,7.00
2018-12-08T10:09:32.567Z,7.10
2018-12-08T10:14:37.277Z,7.20
2018-12-08T10:19:41.278Z,7.10
2018-12-08T10:24:46.268Z,7.20
2018-12-08T10:29:50.299Z,7.20
2018-12-08T10:34:54.754Z,7.60
2018-12-08T10:39:58.930Z,10.20
2018-12-08T10:45:03.097Z,8.20
2018-12-08T10:50:07.686Z,8.40
2018-12-08T10:55:11.111Z,9.40
2018-12-08T11:00:16.672Z,7.90
2018-12-08T11:05:20.892Z,7.70
2018-12-08T11:10:24.520Z,8.40
2018-12-08T11:15:29.084Z,8.80
2018-12-08T11:20:32.668Z,8.30
2018-12-08T11:25:36.897Z,8.20
2018-12-08T11:30:41.616Z,8.00
2018-12-08T11:35:45.862Z,8.00
2018-12-08T11:40:49.433Z,8.40
2018-12-08T11:45:53.146Z,9.00
2018-12-08T11:50:56.858Z,8.60
2018-12-08T11:56:00.330Z,8.40
2018-12-08T12:01:03.932Z,9.20
2018-12-08T12:06:07.380Z,10.30
2018-12-08T12:13:02.451Z,8.80
2018-12-08T12:18:07.338Z,8.10
2018-12-08T12:23:12.042Z,7.70
2018-12-08T12:28:16.864Z,7.50
2018-12-08T12:33:21.371Z,7.60
2018-12-08T12:38:26.038Z,7.90
2018-12-08T12:43:30.737Z,8.00
2018-12-08T12:48:35.448Z,9.10
2018-12-08T12:53:40.465Z,8.70
2018-12-08T12:58:45.247Z,8.60
2018-12-08T13:03:51.128Z,8.80
2018-12-08T13:08:55.517Z,8.50
2018-12-08T13:13:59.637Z,8.70
2018-12-08T13:19:05.107Z,8.60
2018-12-08T13:24:09.835Z,8.50
2018-12-08T13:34:33.127Z,8.10
2018-12-08T13:39:37.292Z,7.70
2018-12-08T13:44:41.065Z,7.60
2018-12-08T13:49:45.810Z,7.70
2018-12-08T13:54:50.421Z,7.80
2018-12-08T13:59:58.243Z,7.90
2018-12-08T14:05:04.461Z,7.80
2018-12-08T14:10:10.295Z,7.90
2018-12-08T14:15:13.740Z,7.90
2018-12-08T14:20:22.320Z,7.90
2018-12-08T14:25:27.242Z,8.00
2018-12-08T14:30:32.128Z,7.60
2018-12-08T14:35:36.720Z,7.30
2018-12-08T14:40:40.629Z,7.10
2018-12-08T14:45:45.055Z,7.10
2018-12-08T14:50:48.775Z,7.10
2018-12-08T14:55:52.289Z,7.30
2018-12-08T15:00:56.390Z,7.30
2018-12-08T15:05:59.983Z,7.20
2018-12-08T15:11:04.642Z,7.20
2018-12-08T15:16:09.174Z,7.00
2018-12-08T15:21:12.784Z,7.00
2018-12-08T15:26:16.392Z,7.10
2018-12-08T15:31:20.105Z,7.10
2018-12-08T15:36:23.676Z,7.20
2018-12-08T15:41:27.632Z,7.30
2018-12-08T15:46:31.346Z,7.30
2018-12-08T15:51:35.713Z,7.40
2018-12-08T15:56:40.943Z,7.50
2018-12-08T16:01:45.347Z,7.50
2018-12-08T16:06:50.208Z,7.50
2018-12-08T16:11:54.121Z,7.60
2018-12-08T16:16:58.838Z,7.60
2018-12-08T16:22:03.636Z,7.60
2018-12-08T16:27:10.428Z,7.60
2018-12-08T16:32:14.948Z,7.60
2018-12-08T16:37:19.536Z,7.60
2018-12-08T16:42:24.585Z,7.70
2018-12-08T16:47:29.005Z,7.70
2018-12-08T16:52:33.695Z,7.60
2018-12-08T16:57:53.945Z,7.70
2018-12-08T17:14:02.323Z,7.80
2018-12-08T17:19:08.357Z,7.70
2018-12-08T17:24:12.063Z,7.70
2018-12-08T17:29:20.909Z,7.70
2018-12-08T17:34:25.492Z,7.80
2018-12-08T17:39:30.134Z,7.80
2018-12-08T17:44:34.662Z,7.80
2018-12-08T17:49:39.298Z,7.80
2018-12-08T17:54:47.035Z,7.80
2018-12-08T17:59:51.544Z,7.80
2018-12-08T18:04:57.340Z,7.80
2018-12-08T18:10:02.188Z,7.80
2018-12-08T18:15:06.059Z,7.80
2018-12-08T18:20:14.112Z,7.90
2018-12-08T18:25:19.090Z,7.90
2018-12-08T18:30:23.221Z,7.90
2018-12-08T18:35:28.302Z,7.90
2018-12-08T18:40:33.357Z,7.90
2018-12-08T18:45:37.937Z,7.90
2018-12-08T18:50:42.702Z,7.80
2018-12-08T18:55:47.804Z,7.90
2018-12-08T19:00:52.664Z,7.90
2018-12-08T19:05:58.214Z,7.90
2018-12-08T19:11:03.350Z,7.80
2018-12-08T19:16:07.265Z,7.80
2018-12-08T19:21:13.446Z,7.70
2018-12-08T19:26:17.464Z,7.60
2018-12-08T19:31:22.304Z,7.60
2018-12-08T19:36:27.554Z,7.40
2018-12-08T19:41:32.568Z,7.30
2018-12-08T19:46:39.214Z,7.30
2018-12-08T19:51:44.352Z,7.10
2018-12-08T19:56:52.004Z,7.00
2018-12-08T20:01:56.246Z,6.90
2018-12-08T20:07:01.388Z,6.90
2018-12-08T20:12:07.357Z,6.90
2018-12-08T20:17:11.686Z,6.80
2018-12-08T20:22:16.766Z,6.70
2018-12-08T20:27:22.922Z,6.70
2018-12-08T20:32:28.241Z,6.60
2018-12-08T20:37:32.457Z,6.60
2018-12-08T20:42:37.797Z,6.60
2018-12-08T20:47:41.671Z,6.60
2018-12-08T20:52:46.581Z,6.60
2018-12-08T20:57:51.413Z,6.60
2018-12-08T21:02:55.433Z,6.60
2018-12-08T21:08:00.123Z,6.60
2018-12-08T21:13:05.213Z,6.50
2018-12-08T21:18:10.059Z,6.40
2018-12-08T21:23:13.813Z,6.40
2018-12-08T21:28:18.608Z,6.30
2018-12-08T21:33:22.826Z,6.30
2018-12-08T21:38:27.925Z,6.40
2018-12-08T21:43:33.223Z,6.40
2018-12-08T21:48:37.549Z,6.60
2018-12-08T21:53:42.446Z,6.70
2018-12-08T21:58:46.198Z,6.90
2018-12-08T22:03:51.321Z,6.90
2018-12-08T22:08:55.160Z,7.00
2018-12-08T22:13:58.970Z,7.10
2018-12-08T22:19:04.027Z,7.10
2018-12-08T22:24:08.551Z,7.00
2018-12-08T22:29:13.512Z,7.20
2018-12-08T22:34:18.184Z,7.10
2018-12-08T22:39:23.064Z,7.00
2018-12-08T22:44:27.905Z,7.00
2018-12-08T22:49:32.887Z,7.00
2018-12-08T22:54:36.943Z,7.20
2018-12-08T22:59:41.941Z,7.30
2018-12-08T23:04:46.144Z,7.30
2018-12-08T23:09:50.717Z,7.40
2018-12-08T23:14:55.800Z,7.60
2018-12-08T23:20:00.764Z,7.80
2018-12-08T23:25:06.155Z,7.90
2018-12-08T23:30:11.139Z,8.10
2018-12-08T23:35:14.846Z,8.10
2018-12-08T23:40:18.487Z,8.20
2018-12-08T23:45:23.730Z,8.20
2018-12-08T23:50:27.371Z,8.30
2018-12-08T23:55:32.055Z,8.40
